createdAt,value
2016-05-22T00:00:18.329Z,84.49
2016-05-22T00:01:18.284Z,84.4
2016-05-22T00:02:18.255Z,84.2
2016-05-22T00:03:18.227Z,84.3
2016-05-22T00:04:18.182Z,84.78
2016-05-22T00:05:18.154Z,84.01
2016-05-22T00:06:18.126Z,84.69
2016-05-22T00:07:18.097Z,84.69
2016-05-22T00:08:18.069Z,84.01
2016-05-22T00:09:18.024Z,84.4
2016-05-22T00:10:17.995Z,84.4
2016-05-22T00:11:17.999Z,84.69
2016-05-22T00:12:18.470Z,84.88
2016-05-22T00:13:17.909Z,84.78
2016-05-22T00:14:17.867Z,84.59
2016-05-22T00:15:17.837Z,84.59
2016-05-22T00:16:17.793Z,84.4
2016-05-22T00:17:17.764Z,84.59
2016-05-22T00:18:17.736Z,84.59
2016-05-22T00:19:17.692Z,84.59
2016-05-22T00:20:17.663Z,84.59
2016-05-22T00:21:17.635Z,84.69
2016-05-22T00:22:17.591Z,84.88
2016-05-22T00:23:17.561Z,84.4
2016-05-22T00:24:17.534Z,84.69
2016-05-22T00:25:17.521Z,83.92
2016-05-22T00:26:17.460Z,84.78
2016-05-22T00:27:17.792Z,84.69
2016-05-22T00:28:17.404Z,84.88
2016-05-22T00:29:17.375Z,84.69
2016-05-22T00:30:17.362Z,84.78
2016-05-22T00:31:17.302Z,84.78
2016-05-22T00:32:17.274Z,84.78
2016-05-22T00:33:17.245Z,84.88
2016-05-22T00:34:17.201Z,84.78
2016-05-22T00:35:17.173Z,84.69
2016-05-22T00:36:17.144Z,84.59
2016-05-22T00:37:17.115Z,84.59
2016-05-22T00:38:17.071Z,84.4
2016-05-22T00:39:17.059Z,84.49
2016-05-22T00:40:17.014Z,84.78
2016-05-22T00:41:16.970Z,83.83
2016-05-22T00:42:16.942Z,84.78
2016-05-22T00:43:17.162Z,84.49
2016-05-22T00:44:16.885Z,84.59
2016-05-22T00:45:16.840Z,84.59
2016-05-22T00:46:16.811Z,84.69
2016-05-22T00:47:16.862Z,84.78
2016-05-22T00:48:16.754Z,84.3
2016-05-22T00:49:16.710Z,84.59
2016-05-22T00:50:16.681Z,84.69
2016-05-22T00:51:16.669Z,84.36
2016-05-22T00:52:16.609Z,84.36
2016-05-22T00:53:16.580Z,84.64
2016-05-22T00:54:16.552Z,84.45
2016-05-22T00:55:16.523Z,85.12
2016-05-22T00:56:16.494Z,85.12
2016-05-22T00:57:16.450Z,84.74
2016-05-22T00:58:16.422Z,84.92
2016-05-22T00:59:16.394Z,84.92
2016-05-22T01:00:16.349Z,84.92
2016-05-22T01:01:16.321Z,85.21
2016-05-22T01:02:16.291Z,84.74
2016-05-22T01:03:16.248Z,85.02
2016-05-22T01:04:16.219Z,85.02
2016-05-22T01:05:16.190Z,85.41
2016-05-22T01:06:16.162Z,85.21
2016-05-22T01:07:16.118Z,85.41
2016-05-22T01:08:16.090Z,85.41
2016-05-22T01:09:16.060Z,85.41
2016-05-22T01:10:16.017Z,85.41
2016-05-22T01:11:15.988Z,85.41
2016-05-22T01:12:15.959Z,85.31
2016-05-22T01:13:15.931Z,85.41
2016-05-22T01:14:15.887Z,85.21
2016-05-22T01:15:15.858Z,85.31
2016-05-22T01:16:15.830Z,85.41
2016-05-22T01:17:15.786Z,85.41
2016-05-22T01:18:15.756Z,85.69
2016-05-22T01:19:15.728Z,85.78
2016-05-22T01:20:15.700Z,85.69
2016-05-22T01:21:15.656Z,85.69
2016-05-22T01:22:15.628Z,85.6
2016-05-22T01:23:15.598Z,85.88
2016-05-22T01:24:15.552Z,85.74
2016-05-22T01:25:15.523Z,86.03
2016-05-22T01:26:15.478Z,85.74
2016-05-22T01:27:15.828Z,86.03
2016-05-22T01:28:15.422Z,86.03
2016-05-22T01:29:15.377Z,86.83
2016-05-22T01:30:15.349Z,86.41
2016-05-22T01:31:15.320Z,86.51
2016-05-22T01:32:15.291Z,86.51
2016-05-22T01:33:15.247Z,86.79
2016-05-22T01:34:15.219Z,86.41
2016-05-22T01:35:15.206Z,86.88
2016-05-22T01:36:15.146Z,86.6
2016-05-22T01:37:15.118Z,86.79
2016-05-22T01:38:15.090Z,87.17
2016-05-22T01:39:15.060Z,87.55
2016-05-22T01:40:15.016Z,87.46
2016-05-22T01:41:14.987Z,87.36
2016-05-22T01:42:14.960Z,87.17
2016-05-22T01:43:14.915Z,87.65
2016-05-22T01:44:14.887Z,87.55
2016-05-22T01:45:14.858Z,87.17
2016-05-22T01:46:14.814Z,87.65
2016-05-22T01:47:14.785Z,87.65
2016-05-22T01:48:14.757Z,87.84
2016-05-22T01:49:14.728Z,88.03
2016-05-22T01:50:14.700Z,88.31
2016-05-22T01:51:14.656Z,88.03
2016-05-22T01:52:14.611Z,88.03
2016-05-22T01:53:14.583Z,87.93
2016-05-22T01:54:14.553Z,88.22
2016-05-22T01:55:14.511Z,87.93
2016-05-22T01:56:14.481Z,87.84
2016-05-22T01:57:14.453Z,87.93
2016-05-22T01:58:14.424Z,88.12
2016-05-22T01:59:14.380Z,87.93
2016-05-22T02:00:14.352Z,88.03
2016-05-22T02:01:14.323Z,87.93
2016-05-22T02:02:14.279Z,88.12
2016-05-22T02:03:14.250Z,88.6
2016-05-22T02:04:14.221Z,88.6
2016-05-22T02:05:14.178Z,88.6
2016-05-22T02:06:14.149Z,87.84
2016-05-22T02:07:14.120Z,88.22
2016-05-22T02:08:14.077Z,88.51
2016-05-22T02:09:14.048Z,88.6
2016-05-22T02:10:14.019Z,87.93
2016-05-22T02:11:13.990Z,87.93
2016-05-22T02:12:13.962Z,88.12
2016-05-22T02:13:13.918Z,88.12
2016-05-22T02:14:13.890Z,87.84
2016-05-22T02:15:13.845Z,87.65
2016-05-22T02:16:13.817Z,87.74
2016-05-22T02:17:13.788Z,87.65
2016-05-22T02:18:13.743Z,87.17
2016-05-22T02:19:13.715Z,87.27
2016-05-22T02:20:13.687Z,87.65
2016-05-22T02:21:13.643Z,86.98
2016-05-22T02:22:13.614Z,87.65
2016-05-22T02:23:13.586Z,87.55
2016-05-22T02:24:13.541Z,87.36
2016-05-22T02:25:13.512Z,87.65
2016-05-22T02:26:13.484Z,87.36
2016-05-22T02:27:13.597Z,87.17
2016-05-22T02:28:13.411Z,87.46
2016-05-22T02:29:13.383Z,87.55
2016-05-22T02:30:13.339Z,87.65
2016-05-22T02:31:13.310Z,87.65
2016-05-22T02:32:13.281Z,87.65
2016-05-22T02:33:13.238Z,87.84
2016-05-22T02:34:13.209Z,87.84
2016-05-22T02:35:13.180Z,87.65
2016-05-22T02:36:13.152Z,87.84
2016-05-22T02:37:13.107Z,87.84
2016-05-22T02:38:13.079Z,87.93
2016-05-22T02:39:13.035Z,88.03
2016-05-22T02:40:13.007Z,87.93
2016-05-22T02:41:12.977Z,88.12
2016-05-22T02:42:12.949Z,88.03
2016-05-22T02:43:12.905Z,88.03
2016-05-22T02:44:12.876Z,88.03
2016-05-22T02:45:12.847Z,87.93
2016-05-22T02:46:12.819Z,87.93
2016-05-22T02:47:12.775Z,87.84
2016-05-22T02:48:12.746Z,87.93
2016-05-22T02:49:12.702Z,88.22
2016-05-22T02:50:12.673Z,87.84
2016-05-22T02:51:12.645Z,88.56
2016-05-22T02:52:12.617Z,88.41
2016-05-22T02:53:12.572Z,88.51
2016-05-22T02:54:12.544Z,88.51
2016-05-22T02:55:12.500Z,88.51
2016-05-22T02:56:12.470Z,88.79
2016-05-22T02:57:12.661Z,88.84
2016-05-22T02:58:12.398Z,88.6
2016-05-22T02:59:12.369Z,88.56
2016-05-22T03:00:12.341Z,88.37
2016-05-22T03:01:12.359Z,88.51
2016-05-22T03:02:12.269Z,88.65
2016-05-22T03:03:12.239Z,88.89
2016-05-22T03:04:12.195Z,88.7
2016-05-22T03:05:12.167Z,89.03
2016-05-22T03:06:12.138Z,89.03
2016-05-22T03:07:12.110Z,88.84
2016-05-22T03:08:12.066Z,88.93
2016-05-22T03:09:12.038Z,88.75
2016-05-22T03:10:12.008Z,88.56
2016-05-22T03:11:11.964Z,89.13
2016-05-22T03:12:11.935Z,89.13
2016-05-22T03:13:11.954Z,89.32
2016-05-22T03:14:11.879Z,88.84
2016-05-22T03:15:11.975Z,89.22
2016-05-22T03:16:11.806Z,89.22
2016-05-22T03:17:11.762Z,89.22
2016-05-22T03:18:11.733Z,89.03
2016-05-22T03:19:11.705Z,89.22
2016-05-22T03:20:11.660Z,89.13
2016-05-22T03:21:11.632Z,89.13
2016-05-22T03:22:11.587Z,89.7
2016-05-22T03:23:11.559Z,89.32
2016-05-22T03:24:11.531Z,89.03
2016-05-22T03:25:11.533Z,89.22
2016-05-22T03:26:11.458Z,89.03
2016-05-22T03:27:11.429Z,89.51
2016-05-22T03:28:11.400Z,89.13
2016-05-22T03:29:11.356Z,89.32
2016-05-22T03:30:11.344Z,89.22
2016-05-22T03:31:11.348Z,89.03
2016-05-22T03:32:11.335Z,89.61
2016-05-22T03:33:11.339Z,89.61
2016-05-22T03:34:11.341Z,89.79
2016-05-22T03:35:11.333Z,89.79
2016-05-22T03:36:11.300Z,89.51
2016-05-22T03:37:11.282Z,89.79
2016-05-22T03:38:11.250Z,90.08
2016-05-22T03:39:11.232Z,89.89
2016-05-22T03:40:11.212Z,89.89
2016-05-22T03:41:11.171Z,89.98
2016-05-22T03:42:11.147Z,90.17
2016-05-22T03:43:11.559Z,89.61
2016-05-22T03:44:11.082Z,90.27
2016-05-22T03:45:11.056Z,89.98
2016-05-22T03:46:11.030Z,89.89
2016-05-22T03:47:10.987Z,89.98
2016-05-22T03:48:10.960Z,90.08
2016-05-22T03:49:10.934Z,89.98
2016-05-22T03:50:10.889Z,90.65
2016-05-22T03:51:10.861Z,90.46
2016-05-22T03:52:10.818Z,90.56
2016-05-22T03:53:10.789Z,90.46
2016-05-22T03:54:10.761Z,90.56
2016-05-22T03:55:10.717Z,90.56
2016-05-22T03:56:10.689Z,90.17
2016-05-22T03:57:10.660Z,90.08
2016-05-22T03:58:10.631Z,90.56
2016-05-22T03:59:10.587Z,90.17
2016-05-22T04:00:10.558Z,90.08
2016-05-22T04:01:10.514Z,89.98
2016-05-22T04:02:10.486Z,90.56
2016-05-22T04:03:10.457Z,90.56
2016-05-22T04:04:10.413Z,90.56
2016-05-22T04:05:10.384Z,90.08
2016-05-22T04:06:10.356Z,89.98
2016-05-22T04:07:10.313Z,90.27
2016-05-22T04:08:10.283Z,89.7
2016-05-22T04:09:10.254Z,89.89
2016-05-22T04:10:10.210Z,89.7
2016-05-22T04:11:10.182Z,89.61
2016-05-22T04:12:10.154Z,89.89
2016-05-22T04:13:10.110Z,89.89
2016-05-22T04:14:10.081Z,89.26
2016-05-22T04:15:10.051Z,89.26
2016-05-22T04:16:10.008Z,89.26
2016-05-22T04:17:09.979Z,88.89
2016-05-22T04:18:09.951Z,88.98
2016-05-22T04:19:09.907Z,88.41
2016-05-22T04:20:09.879Z,88.51
2016-05-22T04:21:09.849Z,87.93
2016-05-22T04:22:09.821Z,87.84
2016-05-22T04:23:09.777Z,87.4
2016-05-22T04:24:09.748Z,87.21
2016-05-22T04:25:09.720Z,87.12
2016-05-22T04:26:09.676Z,86.74
2016-05-22T04:27:09.647Z,86.65
2016-05-22T04:28:09.619Z,86.55
2016-05-22T04:29:09.575Z,86.55
2016-05-22T04:30:09.546Z,86.16
2016-05-22T04:31:09.502Z,85.97
2016-05-22T04:32:09.472Z,85.88
2016-05-22T04:33:09.444Z,85.6
2016-05-22T04:34:09.416Z,85.12
2016-05-22T04:35:09.371Z,85.35
2016-05-22T04:36:09.343Z,85.06
2016-05-22T04:37:09.330Z,84.49
2016-05-22T04:38:09.286Z,84.2
2016-05-22T04:39:09.257Z,83.77
2016-05-22T04:40:09.213Z,82.53
2016-05-22T04:41:09.184Z,81.81
2016-05-22T04:42:09.156Z,80.66
2016-05-22T04:43:09.143Z,79.85
2016-05-22T04:44:09.084Z,78.93
2016-05-22T04:45:09.054Z,77.11
2016-05-22T04:46:09.026Z,75.91
2016-05-22T04:47:08.998Z,74.85
2016-05-22T04:48:08.984Z,73.46
2016-05-22T04:49:08.940Z,72.5
2016-05-22T04:50:08.896Z,71.3
2016-05-22T04:51:08.868Z,70.05
2016-05-22T04:52:08.839Z,68.74
2016-05-22T04:53:08.811Z,67.34
2016-05-22T04:54:08.781Z,66.96
2016-05-22T04:55:08.753Z,66.58
2016-05-22T04:56:08.741Z,64.5
2016-05-22T04:57:08.696Z,63.64
2016-05-22T04:58:09.058Z,62.52
2016-05-22T04:59:08.639Z,61.02
2016-05-22T05:00:08.611Z,60.15
2016-05-22T05:01:08.582Z,58.94
2016-05-22T05:02:08.553Z,57.11
2016-05-22T05:03:08.524Z,56.37
2016-05-22T05:04:08.496Z,56.21
2016-05-22T05:05:08.483Z,55.05
2016-05-22T05:06:08.502Z,53.06
2016-05-22T05:07:08.426Z,52.39
2016-05-22T05:08:08.398Z,51.45
2016-05-22T05:09:08.369Z,50.87
2016-05-22T05:10:08.340Z,50.71
2016-05-22T05:11:08.328Z,50.9
2016-05-22T05:12:08.284Z,49.55
2016-05-22T05:13:09.129Z,48.81
2016-05-22T05:14:09.039Z,47.56
2016-05-22T05:15:09.010Z,47.29
2016-05-22T05:16:08.997Z,46.35
2016-05-22T05:17:08.969Z,45.2
2016-05-22T05:18:08.940Z,45.12
2016-05-22T05:19:08.911Z,44.06
2016-05-22T05:20:08.898Z,45.03
2016-05-22T05:21:08.870Z,44.35
2016-05-22T05:22:08.842Z,43.77
2016-05-22T05:23:08.814Z,43.31
2016-05-22T05:24:08.801Z,42.73
2016-05-22T05:25:08.771Z,42.36
2016-05-22T05:26:08.758Z,41.88
2016-05-22T05:27:08.731Z,41.6
2016-05-22T05:28:08.077Z,41.6
2016-05-22T05:29:08.689Z,41.33
2016-05-22T05:30:08.661Z,41.03
2016-05-22T05:31:08.647Z,40.75
2016-05-22T05:32:07.993Z,40.96
2016-05-22T05:33:08.606Z,40.38
2016-05-22T05:34:08.577Z,39.99
2016-05-22T05:35:08.549Z,39.34
2016-05-22T05:36:08.536Z,38.46
2016-05-22T05:37:08.523Z,38.29
2016-05-22T05:38:08.494Z,37.71
2016-05-22T05:39:08.466Z,37.24
2016-05-22T05:40:08.452Z,36.18
2016-05-22T05:41:07.799Z,35.81
2016-05-22T05:42:08.396Z,35.33
2016-05-22T05:43:07.758Z,35.33
2016-05-22T05:44:08.370Z,35.33
2016-05-22T05:45:08.340Z,35.25
2016-05-22T05:46:08.328Z,34.28
2016-05-22T05:47:08.315Z,34.57
2016-05-22T05:48:08.301Z,34.09
2016-05-22T05:49:08.259Z,34.01
2016-05-22T05:50:08.245Z,33.23
2016-05-22T05:51:08.217Z,32.57
2016-05-22T05:52:08.203Z,32
2016-05-22T05:53:08.191Z,31.53
2016-05-22T05:54:07.522Z,30.95
2016-05-22T05:55:08.150Z,30.95
2016-05-22T05:56:08.120Z,30.85
2016-05-22T05:57:08.108Z,29.98
2016-05-22T05:58:08.079Z,29.22
2016-05-22T05:59:08.066Z,29.71
2016-05-22T06:00:08.053Z,29.41
2016-05-22T06:01:07.400Z,28.93
2016-05-22T06:02:07.371Z,29.22
2016-05-22T06:03:07.983Z,28.74
2016-05-22T06:04:07.969Z,28.83
2016-05-22T06:05:07.942Z,28.45
2016-05-22T06:06:07.929Z,28.07
2016-05-22T06:07:07.916Z,27.97
2016-05-22T06:08:07.950Z,27.4
2016-05-22T06:09:07.874Z,27.11
2016-05-22T06:10:07.861Z,26.64
2016-05-22T06:11:07.833Z,26.64
2016-05-22T06:12:07.195Z,26.17
2016-05-22T06:13:07.807Z,25.78
2016-05-22T06:14:07.810Z,25.89
2016-05-22T06:15:07.766Z,26.17
2016-05-22T06:16:07.768Z,25.97
2016-05-22T06:17:07.724Z,25.97
2016-05-22T06:18:07.087Z,26.08
2016-05-22T06:19:07.699Z,25.99
2016-05-22T06:20:07.670Z,25.31
2016-05-22T06:21:07.656Z,25.12
2016-05-22T06:22:07.643Z,25.52
2016-05-22T06:23:07.631Z,25.42
2016-05-22T06:24:07.603Z,25.14
2016-05-22T06:25:07.590Z,25.04
2016-05-22T06:26:07.576Z,24.67
2016-05-22T06:27:07.578Z,24.78
2016-05-22T06:28:07.551Z,23.71
2016-05-22T06:29:07.522Z,23.82
2016-05-22T06:30:07.509Z,23.54
2016-05-22T06:31:07.481Z,22.76
2016-05-22T06:32:07.468Z,22.87
2016-05-22T06:33:07.454Z,22.39
2016-05-22T06:34:06.800Z,22.2
2016-05-22T06:35:07.413Z,21.72
2016-05-22T06:36:07.400Z,20.74
2016-05-22T06:37:07.388Z,19.96
2016-05-22T06:38:07.358Z,20.07
2016-05-22T06:39:07.345Z,19.78
2016-05-22T06:40:06.707Z,19.3
2016-05-22T06:41:07.319Z,19.12
2016-05-22T06:42:07.322Z,19.02
2016-05-22T06:43:07.294Z,18.24
2016-05-22T06:44:07.266Z,18.25
2016-05-22T06:45:06.627Z,17.36
2016-05-22T06:46:07.239Z,17.07
2016-05-22T06:47:06.586Z,16.88
2016-05-22T06:48:07.229Z,16.69
2016-05-22T06:49:07.201Z,16.41
2016-05-22T06:50:07.188Z,15.83
2016-05-22T06:51:07.159Z,16.02
2016-05-22T06:52:06.520Z,15.14
2016-05-22T06:53:06.523Z,15.44
2016-05-22T06:54:07.104Z,14.85
2016-05-22T06:55:07.092Z,14.47
2016-05-22T06:56:07.079Z,13.78
2016-05-22T06:57:07.066Z,13.68
2016-05-22T06:58:07.069Z,13.29
2016-05-22T06:59:06.415Z,13.49
2016-05-22T07:00:06.402Z,13.31
2016-05-22T07:01:07.015Z,13.1
2016-05-22T07:02:07.001Z,12.72
2016-05-22T07:03:06.363Z,12.13
2016-05-22T07:04:06.975Z,11.93
2016-05-22T07:05:06.322Z,11.84
2016-05-22T07:06:06.933Z,11.35
2016-05-22T07:07:06.921Z,10.66
2016-05-22T07:08:06.924Z,11.16
2016-05-22T07:09:06.895Z,10.96
2016-05-22T07:10:06.897Z,11.26
2016-05-22T07:11:06.885Z,10.86
2016-05-22T07:12:06.857Z,10.38
2016-05-22T07:13:06.859Z,10.18
2016-05-22T07:14:06.830Z,10.39
2016-05-22T07:15:06.818Z,9.79
2016-05-22T07:16:06.804Z,10.19
2016-05-22T07:17:06.229Z,9.5
2016-05-22T07:18:06.779Z,9.41
2016-05-22T07:19:06.766Z,9.01
2016-05-22T07:20:06.753Z,8.92
2016-05-22T07:21:06.740Z,8.62
2016-05-22T07:22:06.743Z,8.62
2016-05-22T07:23:06.715Z,8.43
2016-05-22T07:24:06.076Z,8.33
2016-05-22T07:25:06.704Z,8.33
2016-05-22T07:26:06.691Z,8.24
2016-05-22T07:27:06.662Z,7.54
2016-05-22T07:28:06.665Z,7.34
2016-05-22T07:29:06.652Z,7.15
2016-05-22T07:30:06.655Z,7.15
2016-05-22T07:31:06.001Z,7.05
2016-05-22T07:32:06.614Z,6.66
2016-05-22T07:33:06.600Z,6.26
2016-05-22T07:34:06.602Z,6.07
2016-05-22T07:35:06.605Z,5.97
2016-05-22T07:36:06.578Z,6.07
2016-05-22T07:37:06.611Z,5.87
2016-05-22T07:38:06.552Z,5.68
2016-05-22T07:39:06.538Z,5.48
2016-05-22T07:40:06.525Z,5.27
2016-05-22T07:41:05.887Z,5.38
2016-05-22T07:42:06.515Z,5.28
2016-05-22T07:43:06.486Z,5.28
2016-05-22T07:44:06.489Z,5.28
2016-05-22T07:45:06.507Z,4.98
2016-05-22T07:46:06.463Z,5.28
2016-05-22T07:47:05.825Z,5.08
2016-05-22T07:48:06.437Z,5.08
2016-05-22T07:49:06.441Z,4.39
2016-05-22T07:50:06.427Z,4.29
2016-05-22T07:51:06.414Z,4.29
2016-05-22T07:52:06.401Z,4.39
2016-05-22T07:53:06.404Z,4.1
2016-05-22T07:54:05.765Z,3.6
2016-05-22T07:55:06.379Z,3.6
2016-05-22T07:56:06.365Z,3.8
2016-05-22T07:57:05.727Z,3.7
2016-05-22T07:58:06.371Z,3.9
2016-05-22T07:59:06.342Z,3.6
2016-05-22T08:00:06.328Z,3.5
2016-05-22T08:01:06.332Z,3.41
2016-05-22T08:02:06.320Z,3.41
2016-05-22T08:03:06.306Z,3.1
2016-05-22T08:04:05.667Z,2.7
2016-05-22T08:05:06.296Z,2.81
2016-05-22T08:06:06.283Z,2.81
2016-05-22T08:07:06.285Z,2.81
2016-05-22T08:08:05.632Z,2.4
2016-05-22T08:09:06.260Z,2.61
2016-05-22T08:10:05.622Z,2.31
2016-05-22T08:11:06.266Z,2.01
2016-05-22T08:12:06.236Z,2.11
2016-05-22T08:13:06.224Z,2.01
2016-05-22T08:14:06.226Z,1.81
2016-05-22T08:15:06.213Z,2.41
2016-05-22T08:16:06.356Z,2.11
2016-05-22T08:17:06.202Z,2.01
2016-05-22T08:18:06.190Z,2.01
2016-05-22T08:19:06.193Z,1.4
2016-05-22T08:20:06.179Z,1.71
2016-05-22T08:21:06.229Z,1.41
2016-05-22T08:22:06.170Z,1.51
2016-05-22T08:23:06.157Z,1.71
2016-05-22T08:24:06.159Z,1.31
2016-05-22T08:25:06.146Z,1.21
2016-05-22T08:26:06.134Z,1.31
2016-05-22T08:27:05.495Z,1.01
2016-05-22T08:28:06.123Z,0.2
2016-05-22T08:29:06.110Z,0.81
2016-05-22T08:30:06.113Z,0.4
2016-05-22T08:31:06.100Z,0.1
2016-05-22T08:32:06.103Z,0.4
2016-05-22T08:33:06.105Z,0.3
2016-05-22T08:34:05.453Z,0.1
2016-05-22T08:35:06.080Z,0
2016-05-22T08:36:06.067Z,0
2016-05-22T08:37:06.069Z,0
2016-05-22T08:38:06.056Z,0
2016-05-22T08:39:05.433Z,0
2016-05-22T08:40:06.062Z,0
2016-05-22T08:41:06.049Z,0
2016-05-22T08:42:06.052Z,0
2016-05-22T08:43:05.413Z,0
2016-05-22T08:44:06.041Z,0
2016-05-22T08:45:06.028Z,0
2016-05-22T08:46:06.031Z,0
2016-05-22T08:47:06.033Z,0
2016-05-22T08:48:05.380Z,0
2016-05-22T08:49:06.007Z,0
2016-05-22T08:50:06.010Z,0
2016-05-22T08:51:05.998Z,0
2016-05-22T08:52:06.000Z,0
2016-05-22T08:53:05.987Z,0
2016-05-22T08:54:05.990Z,0
2016-05-22T08:55:05.368Z,0
2016-05-22T08:56:05.979Z,0
2016-05-22T08:57:05.982Z,0
2016-05-22T08:58:05.345Z,0
2016-05-22T08:59:05.972Z,0
2016-05-22T09:00:05.959Z,0
2016-05-22T09:01:05.961Z,0
2016-05-22T09:02:05.964Z,0
2016-05-22T09:03:05.951Z,0
2016-05-22T09:04:05.954Z,0
2016-05-22T09:05:05.972Z,0
2016-05-22T09:06:05.944Z,0
2016-05-22T09:07:05.931Z,0
2016-05-22T09:08:05.965Z,0
2016-05-22T09:09:05.296Z,0
2016-05-22T09:10:05.924Z,0
2016-05-22T09:11:05.927Z,0
2016-05-22T09:12:05.288Z,0
2016-05-22T09:13:05.916Z,0
2016-05-22T09:14:05.919Z,0
2016-05-22T09:15:05.922Z,0
2016-05-22T09:16:05.283Z,0
2016-05-22T09:17:05.910Z,0
2016-05-22T09:18:05.913Z,0
2016-05-22T09:19:05.901Z,0
2016-05-22T09:20:05.904Z,0
2016-05-22T09:21:05.906Z,0
2016-05-22T09:22:05.893Z,0
2016-05-22T09:23:05.896Z,0
2016-05-22T09:24:05.274Z,0
2016-05-22T09:25:05.885Z,0
2016-05-22T09:26:05.248Z,0
2016-05-22T09:27:05.876Z,0
2016-05-22T09:28:05.878Z,0
2016-05-22T09:29:05.881Z,0
2016-05-22T09:30:05.884Z,0
2016-05-22T09:31:05.246Z,0
2016-05-22T09:32:05.874Z,0
2016-05-22T09:33:05.861Z,0
2016-05-22T09:34:05.863Z,0
2016-05-22T09:35:05.866Z,0
2016-05-22T09:36:05.869Z,0
2016-05-22T09:37:05.855Z,0
2016-05-22T09:38:05.858Z,0
2016-05-22T09:39:05.877Z,0
2016-05-22T09:40:05.848Z,0
2016-05-22T09:41:05.850Z,0
2016-05-22T09:42:05.853Z,0
2016-05-22T09:43:05.841Z,0
2016-05-22T09:44:05.843Z,0
2016-05-22T09:45:05.846Z,0
2016-05-22T09:46:05.833Z,0
2016-05-22T09:47:05.836Z,0
2016-05-22T09:48:05.838Z,0
2016-05-22T09:49:05.841Z,0
2016-05-22T09:50:05.844Z,0
2016-05-22T09:51:05.830Z,0
2016-05-22T09:52:05.193Z,0
2016-05-22T09:53:05.821Z,0
2016-05-22T09:54:05.839Z,0
2016-05-22T09:55:05.826Z,0
2016-05-22T09:56:05.829Z,0
2016-05-22T09:57:05.831Z,0
2016-05-22T09:58:06.396Z,0
2016-05-22T09:59:05.196Z,0
2016-05-22T10:00:05.808Z,0
2016-05-22T10:01:05.795Z,0
2016-05-22T10:02:06.173Z,0
2016-05-22T10:03:05.800Z,0
2016-05-22T10:04:05.787Z,0
2016-05-22T10:05:05.790Z,0
2016-05-22T10:06:05.793Z,0
2016-05-22T10:07:05.156Z,0
2016-05-22T10:08:05.783Z,0
2016-05-22T10:09:05.770Z,0
2016-05-22T10:10:05.788Z,0
2016-05-22T10:11:05.759Z,0.3
2016-05-22T10:12:05.762Z,1.4
2016-05-22T10:13:05.905Z,2.2
2016-05-22T10:14:05.752Z,2.4
2016-05-22T10:15:05.739Z,2.8
2016-05-22T10:16:05.741Z,2.59
2016-05-22T10:17:05.730Z,2.59
2016-05-22T10:18:05.840Z,2.69
2016-05-22T10:19:05.078Z,2.49
2016-05-22T10:20:05.705Z,2.59
2016-05-22T10:21:05.708Z,2.59
2016-05-22T10:22:05.055Z,2.29
2016-05-22T10:23:05.682Z,1.6
2016-05-22T10:24:05.685Z,1.3
2016-05-22T10:25:05.688Z,1.5
2016-05-22T10:26:05.034Z,1.9
2016-05-22T10:27:05.662Z,1.6
2016-05-22T10:28:06.180Z,1.8
2016-05-22T10:29:05.651Z,1.5
2016-05-22T10:30:08.529Z,1
2016-05-22T10:31:05.625Z,1.5
2016-05-22T10:32:06.754Z,1.4
2016-05-22T10:33:05.632Z,1.1
2016-05-22T10:34:05.618Z,0.8
2016-05-22T10:35:04.981Z,1.1
2016-05-22T10:36:05.593Z,1
2016-05-22T10:37:05.579Z,0.1
2016-05-22T10:38:05.582Z,0
2016-05-22T10:39:05.569Z,0.3
2016-05-22T10:40:05.572Z,0
2016-05-22T10:41:05.559Z,0
2016-05-22T10:42:09.656Z,0
2016-05-22T10:43:05.549Z,0
2016-05-22T10:44:05.536Z,0
2016-05-22T10:45:05.554Z,0
2016-05-22T10:46:05.276Z,0
2016-05-22T10:47:05.527Z,0
2016-05-22T10:48:05.546Z,0
2016-05-22T10:49:05.518Z,0
2016-05-22T10:50:05.536Z,0
2016-05-22T10:51:05.508Z,0
2016-05-22T10:52:05.510Z,0
2016-05-22T10:53:05.497Z,0
2016-05-22T10:54:05.485Z,0
2016-05-22T10:55:05.488Z,0.8
2016-05-22T10:56:05.475Z,0.7
2016-05-22T10:57:05.461Z,1.81
2016-05-22T10:58:04.823Z,2.7
2016-05-22T10:59:05.451Z,4.09
2016-05-22T11:00:05.438Z,4.48
2016-05-22T11:01:04.801Z,4.78
2016-05-22T11:02:04.803Z,5.07
2016-05-22T11:03:05.399Z,5.27
2016-05-22T11:04:04.762Z,5.46
2016-05-22T11:05:04.780Z,5.56
2016-05-22T11:06:05.376Z,5.95
2016-05-22T11:07:05.363Z,6.44
2016-05-22T11:08:05.366Z,6.34
2016-05-22T11:09:05.337Z,7.21
2016-05-22T11:10:05.355Z,8.4
2016-05-22T11:11:05.328Z,9.17
2016-05-22T11:12:05.314Z,10.05
2016-05-22T11:13:05.286Z,10.63
2016-05-22T11:14:05.288Z,12.09
2016-05-22T11:15:05.291Z,12.97
2016-05-22T11:16:05.247Z,14.52
2016-05-22T11:17:05.250Z,16.17
2016-05-22T11:18:05.221Z,18.21
2016-05-22T11:19:05.208Z,19.86
2016-05-22T11:20:05.194Z,20.82
2016-05-22T11:21:05.182Z,22.56
2016-05-22T11:22:05.154Z,23.14
2016-05-22T11:23:05.141Z,24.01
2016-05-22T11:24:04.503Z,25.56
2016-05-22T11:25:05.115Z,26.62
2016-05-22T11:26:05.086Z,26.8
2016-05-22T11:27:05.074Z,26.98
2016-05-22T11:28:05.154Z,26.97
2016-05-22T11:29:05.048Z,27.16
2016-05-22T11:30:05.034Z,26.48
2016-05-22T11:31:04.381Z,26.18
2016-05-22T11:32:04.993Z,26.75
2016-05-22T11:33:04.324Z,27.51
2016-05-22T11:34:04.312Z,27.61
2016-05-22T11:35:04.939Z,28.08
2016-05-22T11:36:04.926Z,28.18
2016-05-22T11:37:04.898Z,28.28
2016-05-22T11:38:04.243Z,28.08
2016-05-22T11:39:04.840Z,28.38
2016-05-22T11:40:04.827Z,28.96
2016-05-22T11:41:04.798Z,29.15
2016-05-22T11:42:04.786Z,29.15
2016-05-22T11:43:04.757Z,29.24
2016-05-22T11:44:04.744Z,29.44
2016-05-22T11:45:04.731Z,29.62
2016-05-22T11:46:04.703Z,30.4
2016-05-22T11:47:04.690Z,30.59
2016-05-22T11:48:04.661Z,30.48
2016-05-22T11:49:04.647Z,30.19
2016-05-22T11:50:04.620Z,30.29
2016-05-22T11:51:03.966Z,30.29
2016-05-22T11:52:03.953Z,30.69
2016-05-22T11:53:04.550Z,30.11
2016-05-22T11:54:04.536Z,30.01
2016-05-22T11:55:04.508Z,29.04
2016-05-22T11:56:04.480Z,29.44
2016-05-22T11:57:04.466Z,29.04
2016-05-22T11:58:03.813Z,28.66
2016-05-22T11:59:04.424Z,27.98
2016-05-22T12:00:04.396Z,24.58
2016-05-22T12:01:04.430Z,21.09
2016-05-22T12:02:04.355Z,20.11
2016-05-22T12:03:03.733Z,22.06
2016-05-22T12:04:04.313Z,21.28
2016-05-22T12:05:04.301Z,21.18
2016-05-22T12:06:04.272Z,19.82
2016-05-22T12:07:03.618Z,18.47
2016-05-22T12:08:03.590Z,17.98
2016-05-22T12:09:03.592Z,17.5
2016-05-22T12:10:04.189Z,17.79
2016-05-22T12:11:04.161Z,17.9
2016-05-22T12:12:04.148Z,18.38
2016-05-22T12:13:04.120Z,18.58
2016-05-22T12:14:04.089Z,18.48
2016-05-22T12:15:04.140Z,18.87
2016-05-22T12:16:04.064Z,18.58
2016-05-22T12:17:04.052Z,18.38
2016-05-22T12:18:04.023Z,17.9
2016-05-22T12:19:03.994Z,18.38
2016-05-22T12:20:03.981Z,18.09
2016-05-22T12:21:03.952Z,17.9
2016-05-22T12:22:03.924Z,18.48
2016-05-22T12:23:03.927Z,19.26
2016-05-22T12:24:03.961Z,19.94
2016-05-22T12:25:03.855Z,20.42
2016-05-22T12:26:03.842Z,19.26
2016-05-22T12:27:03.188Z,19.35
2016-05-22T12:28:03.799Z,19.26
2016-05-22T12:29:03.771Z,19.35
2016-05-22T12:30:03.758Z,19.65
2016-05-22T12:31:03.745Z,18.96
2016-05-22T12:32:03.717Z,19.26
2016-05-22T12:33:03.688Z,19.65
2016-05-22T12:34:03.675Z,19.95
2016-05-22T12:35:03.881Z,20.04
2016-05-22T12:36:03.662Z,19.56
2016-05-22T12:37:03.030Z,19.46
2016-05-22T12:38:03.647Z,19.65
2016-05-22T12:39:03.638Z,20.06
2016-05-22T12:40:03.644Z,19.85
2016-05-22T12:41:03.627Z,20.53
2016-05-22T12:42:03.606Z,20.83
2016-05-22T12:43:03.600Z,21.02
2016-05-22T12:44:03.578Z,21.41
2016-05-22T12:45:03.588Z,21.7
2016-05-22T12:46:03.578Z,21.5
2016-05-22T12:47:02.912Z,22.09
2016-05-22T12:48:03.527Z,22.39
2016-05-22T12:49:03.501Z,22.58
2016-05-22T12:50:02.849Z,23.17
2016-05-22T12:51:03.463Z,23.84
2016-05-22T12:52:03.435Z,24.43
2016-05-22T12:53:03.408Z,24.13
2016-05-22T12:54:02.770Z,24.04
2016-05-22T12:55:03.384Z,23.66
2016-05-22T12:56:03.355Z,22.97
2016-05-22T12:57:02.702Z,22.6
2016-05-22T12:58:03.346Z,22.02
2016-05-22T12:59:03.411Z,21.43
2016-05-22T13:00:02.650Z,21.14
2016-05-22T13:01:02.620Z,21.44
2016-05-22T13:02:02.608Z,20.76
2016-05-22T13:03:03.220Z,20.96
2016-05-22T13:04:02.568Z,21.06
2016-05-22T13:05:03.195Z,20.67
2016-05-22T13:06:03.152Z,19.6
2016-05-22T13:07:03.154Z,18.82
2016-05-22T13:08:03.110Z,18.43
2016-05-22T13:09:03.098Z,18.13
2016-05-22T13:10:03.084Z,18.13
2016-05-22T13:11:03.055Z,18.62
2016-05-22T13:12:03.026Z,18.62
2016-05-22T13:13:03.014Z,19
2016-05-22T13:14:02.986Z,18.23